createdAt,value
2022-07-26T00:00:19.390Z,98790.16
2022-07-26T00:03:04.144Z,98795.56
2022-07-26T00:05:49.266Z,98789.09
2022-07-26T00:08:34.151Z,98787.78
2022-07-26T00:11:19.972Z,98782.09
2022-07-26T00:14:07.810Z,98788.00
2022-07-26T00:16:53.323Z,98794.66
2022-07-26T00:19:38.676Z,98798.31
2022-07-26T00:22:35.444Z,98790.78
2022-07-26T00:25:20.918Z,98784.31
2022-07-26T00:28:06.009Z,98781.47
2022-07-26T00:30:51.597Z,98785.78
2022-07-26T00:33:36.965Z,98786.50
2022-07-26T00:36:22.027Z,98792.19
2022-07-26T00:39:07.179Z,98790.63
2022-07-26T00:41:52.608Z,98789.00
2022-07-26T00:44:43.624Z,98795.25
2022-07-26T00:47:30.845Z,98792.13
2022-07-26T00:50:18.177Z,98788.78
2022-07-26T00:53:03.148Z,98782.84
2022-07-26T00:55:49.715Z,98785.41
2022-07-26T00:58:34.712Z,98780.44
2022-07-26T01:01:19.702Z,98778.34
2022-07-26T01:04:04.903Z,98784.22
2022-07-26T01:06:50.690Z,98783.69
2022-07-26T01:09:36.140Z,98780.59
2022-07-26T01:12:21.056Z,98777.97
2022-07-26T01:15:07.404Z,98777.66
2022-07-26T01:17:52.613Z,98776.88
2022-07-26T01:20:37.768Z,98774.53
2022-07-26T01:23:22.557Z,98776.88
2022-07-26T01:26:08.026Z,98777.34
2022-07-26T01:28:53.996Z,98776.59
2022-07-26T01:31:39.382Z,98773.22
2022-07-26T01:34:24.526Z,98764.97
2022-07-26T01:37:09.635Z,98767.25
2022-07-26T01:39:54.467Z,98767.25
2022-07-26T01:42:40.860Z,98766.41
2022-07-26T01:45:25.828Z,98763.28
2022-07-26T01:48:11.035Z,98750.63
2022-07-26T01:50:55.842Z,98744.97
2022-07-26T01:53:40.872Z,98744.97
2022-07-26T01:56:25.746Z,98745.50
2022-07-26T01:59:10.952Z,98741.34
2022-07-26T02:01:55.928Z,98742.59
2022-07-26T02:04:58.864Z,98742.03
2022-07-26T02:07:44.739Z,98731.97
2022-07-26T02:10:49.071Z,98727.56
2022-07-26T02:13:36.310Z,98736.84
2022-07-26T02:16:21.761Z,98738.88
2022-07-26T02:19:07.313Z,98733.97
2022-07-26T02:21:52.475Z,98738.34
2022-07-26T02:24:37.658Z,98730.09
2022-07-26T02:27:22.574Z,98732.41
2022-07-26T02:30:08.006Z,98737.88
2022-07-26T02:32:53.281Z,98735.56
2022-07-26T02:35:38.903Z,98733.56
2022-07-26T02:38:24.596Z,98738.72
2022-07-26T02:41:10.298Z,98735.09
2022-07-26T02:43:55.367Z,98732.56
2022-07-26T02:46:40.507Z,98732.13
2022-07-26T02:49:25.173Z,98737.13
2022-07-26T02:52:11.004Z,98751.19
2022-07-26T02:54:55.681Z,98757.56
2022-07-26T02:57:45.557Z,98752.34
2022-07-26T03:00:31.884Z,98759.25
2022-07-26T03:03:16.643Z,98754.78
2022-07-26T03:06:01.712Z,98748.69
2022-07-26T03:08:47.962Z,98750.06
2022-07-26T03:11:32.450Z,98746.22
2022-07-26T03:14:17.500Z,98751.88
2022-07-26T03:17:02.572Z,98743.56
2022-07-26T03:19:47.542Z,98752.78
2022-07-26T03:22:32.345Z,98742.03
2022-07-26T03:25:17.325Z,98746.00
2022-07-26T03:28:02.296Z,98756.75
2022-07-26T03:30:47.265Z,98752.72
2022-07-26T03:33:32.146Z,98756.16
2022-07-26T03:36:17.374Z,98754.34
2022-07-26T03:39:02.944Z,98748.56
2022-07-26T03:41:47.480Z,98747.69
2022-07-26T03:44:32.492Z,98743.38
2022-07-26T03:47:17.309Z,98733.81
2022-07-26T03:50:04.453Z,98730.97
2022-07-26T03:52:49.553Z,98729.97
2022-07-26T03:55:54.531Z,98734.41
2022-07-26T03:58:39.665Z,98732.19
2022-07-26T04:01:25.178Z,98721.06
2022-07-26T04:04:15.281Z,98725.66
2022-07-26T04:07:03.178Z,98722.28
2022-07-26T04:09:48.782Z,98723.31
2022-07-26T04:12:33.566Z,98720.00
2022-07-26T04:15:20.673Z,98723.66
2022-07-26T04:18:06.141Z,98721.41
2022-07-26T04:20:51.405Z,98720.59
2022-07-26T04:23:36.408Z,98719.16
2022-07-26T04:26:21.644Z,98717.41
2022-07-26T04:29:07.759Z,98715.63
2022-07-26T04:31:54.257Z,98720.66
2022-07-26T04:34:39.177Z,98724.38
2022-07-26T04:37:24.283Z,98715.91
2022-07-26T04:40:10.736Z,98719.19
2022-07-26T04:42:57.596Z,98715.97
2022-07-26T04:45:44.954Z,98720.66
2022-07-26T04:48:30.197Z,98714.31
2022-07-26T04:51:15.032Z,98720.81
2022-07-26T04:53:59.984Z,98720.16
2022-07-26T04:56:45.458Z,98724.78
2022-07-26T04:59:32.782Z,98727.69
2022-07-26T05:02:18.016Z,98728.06
2022-07-26T05:05:04.549Z,98724.19
2022-07-26T05:07:55.143Z,98729.44
2022-07-26T05:10:39.806Z,98717.25
2022-07-26T05:13:29.717Z,98728.47
2022-07-26T05:16:16.088Z,98717.91
2022-07-26T05:19:01.535Z,98720.22
2022-07-26T05:21:46.434Z,98711.63
2022-07-26T05:24:31.465Z,98712.00
2022-07-26T05:27:19.893Z,98702.47
2022-07-26T05:30:05.134Z,98703.00
2022-07-26T05:32:50.485Z,98702.94
2022-07-26T05:35:35.329Z,98709.41
2022-07-26T05:38:20.278Z,98700.25
2022-07-26T05:41:05.502Z,98691.75
2022-07-26T05:43:51.264Z,98702.78
2022-07-26T05:46:39.233Z,98708.84
2022-07-26T05:49:25.804Z,98712.78
2022-07-26T05:52:11.095Z,98715.34
2022-07-26T05:54:56.071Z,98717.53
2022-07-26T05:57:46.943Z,98710.09
2022-07-26T06:00:32.208Z,98718.03
2022-07-26T06:03:23.032Z,98709.78
2022-07-26T06:06:08.089Z,98711.97
2022-07-26T06:08:53.668Z,98710.13
2022-07-26T06:11:39.301Z,98710.91
2022-07-26T06:14:24.656Z,98707.84
2022-07-26T06:17:10.371Z,98710.47
2022-07-26T06:19:56.505Z,98707.94
2022-07-26T06:22:41.372Z,98700.41
2022-07-26T06:25:26.998Z,98691.06
2022-07-26T06:28:12.233Z,98696.47
2022-07-26T06:30:57.337Z,98694.03
2022-07-26T06:33:42.327Z,98695.47
2022-07-26T06:36:30.457Z,98696.13
2022-07-26T06:39:32.104Z,98694.59
2022-07-26T06:42:17.147Z,98704.00
2022-07-26T06:45:05.394Z,98696.75
2022-07-26T06:47:50.350Z,98695.25
2022-07-26T06:50:35.301Z,98690.44
2022-07-26T06:53:20.526Z,98692.28
2022-07-26T06:56:05.780Z,98687.41
2022-07-26T06:58:51.198Z,98674.09
2022-07-26T07:01:51.398Z,98677.25
2022-07-26T07:04:41.689Z,98677.00
2022-07-26T07:07:26.770Z,98679.28
2022-07-26T07:10:14.525Z,98682.22
2022-07-26T07:13:02.548Z,98669.50
2022-07-26T07:15:48.270Z,98661.81
2022-07-26T07:18:33.803Z,98657.44
2022-07-26T07:21:18.380Z,98653.63
2022-07-26T07:24:03.621Z,98656.69
2022-07-26T07:26:48.749Z,98667.94
2022-07-26T07:29:36.003Z,98667.59
2022-07-26T07:32:21.152Z,98666.38
2022-07-26T07:35:12.742Z,98663.13
2022-07-26T07:37:58.096Z,98665.25
2022-07-26T07:40:43.161Z,98670.22
2022-07-26T07:43:28.161Z,98675.31
2022-07-26T07:46:13.432Z,98674.81
2022-07-26T07:49:01.569Z,98671.81
2022-07-26T07:51:46.719Z,98669.47
2022-07-26T07:54:31.793Z,98670.13
2022-07-26T07:57:17.306Z,98661.06
2022-07-26T08:00:05.026Z,98666.13
2022-07-26T08:02:56.405Z,98667.75
2022-07-26T08:05:41.464Z,98675.78
2022-07-26T08:08:27.221Z,98667.44
2022-07-26T08:11:12.780Z,98670.06
2022-07-26T08:13:58.682Z,98668.00
2022-07-26T08:16:44.281Z,98665.00
2022-07-26T08:19:40.807Z,98664.31
2022-07-26T08:22:27.273Z,98660.53
2022-07-26T08:25:12.240Z,98658.13
2022-07-26T08:28:04.312Z,98652.00
2022-07-26T08:30:49.073Z,98649.41
2022-07-26T08:33:34.327Z,98657.59
2022-07-26T08:36:19.232Z,98646.25
2022-07-26T08:39:04.522Z,98643.63
2022-07-26T08:41:49.204Z,98648.03
2022-07-26T08:44:33.990Z,98640.75
2022-07-26T08:47:35.370Z,98635.56
2022-07-26T08:50:26.805Z,98637.22
2022-07-26T08:53:12.475Z,98644.09
2022-07-26T08:56:06.949Z,98641.19
2022-07-26T08:58:52.777Z,98649.94
2022-07-26T09:01:54.457Z,98650.84
2022-07-26T09:04:45.753Z,98654.25
2022-07-26T09:07:33.211Z,98651.91
2022-07-26T09:10:18.428Z,98652.72
2022-07-26T09:13:03.410Z,98647.84
2022-07-26T09:16:07.594Z,98646.63
2022-07-26T09:18:53.621Z,98638.44
2022-07-26T09:21:38.759Z,98639.50
2022-07-26T09:24:38.183Z,98636.09
2022-07-26T09:27:27.967Z,98638.53
2022-07-26T09:30:13.661Z,98640.06
2022-07-26T09:33:02.361Z,98639.50
2022-07-26T09:36:05.613Z,98644.84
2022-07-26T09:38:53.133Z,98639.03
2022-07-26T09:41:38.046Z,98634.47
2022-07-26T09:44:25.346Z,98647.34
2022-07-26T09:47:10.025Z,98644.63
2022-07-26T09:50:12.196Z,98633.69
2022-07-26T09:53:00.143Z,98637.19
2022-07-26T09:55:45.321Z,98629.28
2022-07-26T09:58:31.173Z,98625.91
2022-07-26T10:01:16.072Z,98624.78
2022-07-26T10:04:03.092Z,98623.91
2022-07-26T10:06:49.026Z,98614.69
2022-07-26T10:09:42.253Z,98622.31
2022-07-26T10:12:30.858Z,98622.63
2022-07-26T10:15:37.609Z,98624.41
2022-07-26T10:18:38.426Z,98612.19
2022-07-26T10:21:26.223Z,98617.94
2022-07-26T10:24:28.708Z,98624.97
2022-07-26T10:27:38.692Z,98622.44
2022-07-26T10:30:33.310Z,98621.72
2022-07-26T10:33:24.571Z,98622.00
2022-07-26T10:36:22.602Z,98618.66
2022-07-26T10:39:15.822Z,98616.41
2022-07-26T10:42:03.258Z,98612.66
2022-07-26T10:44:49.095Z,98620.63
2022-07-26T10:47:35.467Z,98619.50
2022-07-26T10:50:33.011Z,98617.03
2022-07-26T10:53:26.771Z,98616.28
2022-07-26T10:56:11.790Z,98611.63
2022-07-26T10:58:57.220Z,98612.56
2022-07-26T11:01:43.084Z,98618.59
2022-07-26T11:04:28.313Z,98607.44
2022-07-26T11:07:13.355Z,98605.34
2022-07-26T11:09:59.705Z,98608.75
2022-07-26T11:12:44.699Z,98605.47
2022-07-26T11:15:30.365Z,98598.63
2022-07-26T11:18:31.871Z,98597.94
2022-07-26T11:21:18.184Z,98593.78
2022-07-26T11:24:03.448Z,98596.00
2022-07-26T11:26:48.618Z,98596.97
2022-07-26T11:29:38.755Z,98594.94
2022-07-26T11:32:25.855Z,98594.63
2022-07-26T11:35:11.436Z,98582.94
2022-07-26T11:38:07.792Z,98586.88
2022-07-26T11:40:56.494Z,98589.34
2022-07-26T11:43:42.341Z,98587.44
2022-07-26T11:46:35.661Z,98580.06
2022-07-26T11:49:41.581Z,98573.53
2022-07-26T11:52:30.996Z,98587.13
2022-07-26T11:55:25.670Z,98588.22
2022-07-26T11:58:10.336Z,98579.56
2022-07-26T12:00:55.309Z,98572.84
2022-07-26T12:03:42.636Z,98569.22
2022-07-26T12:06:28.574Z,98560.66
2022-07-26T12:09:31.251Z,98565.19
2022-07-26T12:12:26.924Z,98561.84
2022-07-26T12:15:15.006Z,98558.84
2022-07-26T12:18:00.165Z,98550.13
2022-07-26T12:21:03.689Z,98552.16
2022-07-26T12:23:50.542Z,98542.47
2022-07-26T12:26:36.294Z,98543.47
2022-07-26T12:29:29.405Z,98541.63
2022-07-26T12:32:23.076Z,98540.63
2022-07-26T12:35:15.107Z,98538.34
2022-07-26T12:38:01.340Z,98534.88
2022-07-26T12:40:46.917Z,98529.66
2022-07-26T12:43:42.553Z,98534.97
2022-07-26T12:46:34.711Z,98527.66
2022-07-26T12:49:19.879Z,98528.25
2022-07-26T12:52:04.932Z,98529.81
2022-07-26T12:54:52.175Z,98526.94
2022-07-26T12:57:37.195Z,98514.53
2022-07-26T13:00:22.549Z,98517.03
2022-07-26T13:03:07.634Z,98515.09
2022-07-26T13:05:52.646Z,98531.25
2022-07-26T13:08:37.894Z,98513.00
2022-07-26T13:11:23.089Z,98520.00
2022-07-26T13:14:08.532Z,98513.22
2022-07-26T13:16:54.056Z,98509.94
2022-07-26T13:19:39.418Z,98513.94
2022-07-26T13:22:24.795Z,98508.81
2022-07-26T13:25:09.691Z,98502.97
2022-07-26T13:27:56.161Z,98502.22
2022-07-26T13:30:43.292Z,98504.59
2022-07-26T13:33:28.293Z,98504.13
2022-07-26T13:36:13.304Z,98497.69
2022-07-26T13:38:58.581Z,98507.13
2022-07-26T13:41:43.285Z,98508.09
2022-07-26T13:44:28.722Z,98502.31
2022-07-26T13:47:13.664Z,98503.75
2022-07-26T13:49:58.582Z,98496.38
2022-07-26T13:52:43.551Z,98499.81
2022-07-26T13:55:28.494Z,98497.19
2022-07-26T13:58:13.473Z,98493.50
2022-07-26T14:00:58.956Z,98493.94
2022-07-26T14:03:43.873Z,98499.59
2022-07-26T14:06:28.857Z,98492.13
2022-07-26T14:09:14.857Z,98485.47
2022-07-26T14:11:59.832Z,98492.44
2022-07-26T14:14:44.943Z,98485.31
2022-07-26T14:17:29.850Z,98485.84
2022-07-26T14:20:16.433Z,98488.50
2022-07-26T14:23:01.759Z,98479.78
2022-07-26T14:25:47.105Z,98481.78
2022-07-26T14:28:32.521Z,98477.50
2022-07-26T14:31:18.495Z,98478.00
2022-07-26T14:34:03.130Z,98469.38
2022-07-26T14:36:48.020Z,98465.53
2022-07-26T14:39:36.104Z,98466.47
2022-07-26T14:42:21.355Z,98465.22
2022-07-26T14:45:07.853Z,98459.88
2022-07-26T14:47:53.368Z,98456.72
2022-07-26T14:51:07.266Z,98448.97
2022-07-26T14:53:44.136Z,98448.34
2022-07-26T14:56:29.537Z,98442.84
2022-07-26T14:59:14.674Z,98441.19
2022-07-26T15:02:05.274Z,98443.69
2022-07-26T15:04:51.039Z,98439.84
2022-07-26T15:07:35.960Z,98435.19
2022-07-26T15:10:28.644Z,98423.66
2022-07-26T15:13:14.668Z,98420.59
2022-07-26T15:15:59.641Z,98417.91
2022-07-26T15:18:44.777Z,98425.38
2022-07-26T15:21:29.841Z,98411.75
2022-07-26T15:24:14.990Z,98417.16
2022-07-26T15:27:00.236Z,98406.44
2022-07-26T15:29:47.380Z,98396.88
2022-07-26T15:32:33.771Z,98399.28
2022-07-26T15:35:18.656Z,98397.72
2022-07-26T15:38:03.641Z,98384.31
2022-07-26T15:40:49.037Z,98389.50
2022-07-26T15:43:44.194Z,98390.53
2022-07-26T15:46:33.869Z,98398.69
2022-07-26T15:49:19.113Z,98398.69
2022-07-26T15:52:05.375Z,98392.84
2022-07-26T15:54:52.231Z,98392.53
2022-07-26T15:57:38.323Z,98383.41
2022-07-26T16:00:24.018Z,98394.13
2022-07-26T16:03:11.937Z,98383.91
2022-07-26T16:05:56.976Z,98386.88
2022-07-26T16:08:59.013Z,98386.72
2022-07-26T16:11:48.422Z,98399.03
2022-07-26T16:14:33.831Z,98393.31
2022-07-26T16:17:18.446Z,98400.00
2022-07-26T16:20:04.614Z,98397.22
2022-07-26T16:22:49.425Z,98396.28
2022-07-26T16:25:34.277Z,98396.91
2022-07-26T16:28:19.284Z,98405.88
2022-07-26T16:31:04.579Z,98402.31
2022-07-26T16:33:49.789Z,98408.22
2022-07-26T16:36:35.273Z,98413.31
2022-07-26T16:39:20.365Z,98410.94
2022-07-26T16:42:07.235Z,98410.31
2022-07-26T16:44:52.780Z,98416.25
2022-07-26T16:47:37.975Z,98420.28
2022-07-26T16:50:27.379Z,98418.22
2022-07-26T16:53:13.406Z,98417.50
2022-07-26T16:55:58.422Z,98424.56
2022-07-26T16:58:44.678Z,98425.22
2022-07-26T17:01:30.152Z,98426.47
2022-07-26T17:04:16.028Z,98424.22
2022-07-26T17:07:24.441Z,98426.69
2022-07-26T17:10:08.500Z,98430.03
2022-07-26T17:12:54.021Z,98421.50
2022-07-26T17:15:39.009Z,98423.53
2022-07-26T17:18:24.548Z,98419.19
2022-07-26T17:21:09.684Z,98423.19
2022-07-26T17:23:54.484Z,98423.22
2022-07-26T17:26:39.625Z,98431.78
2022-07-26T17:29:24.977Z,98431.03
2022-07-26T17:32:10.428Z,98424.41
2022-07-26T17:34:55.267Z,98426.47
2022-07-26T17:37:40.320Z,98424.47
2022-07-26T17:40:25.889Z,98423.25
2022-07-26T17:43:12.192Z,98422.81
2022-07-26T17:45:57.149Z,98422.00
2022-07-26T17:48:44.861Z,98430.13
2022-07-26T17:51:30.046Z,98426.34
2022-07-26T17:54:15.204Z,98425.47
2022-07-26T17:57:00.094Z,98434.41
2022-07-26T17:59:45.221Z,98427.63
2022-07-26T18:02:30.044Z,98428.34
2022-07-26T18:05:15.344Z,98437.06
2022-07-26T18:08:00.722Z,98441.25
2022-07-26T18:10:50.813Z,98450.41
2022-07-26T18:13:37.833Z,98443.03
2022-07-26T18:16:22.838Z,98449.72
2022-07-26T18:19:08.209Z,98448.06
2022-07-26T18:21:53.352Z,98453.47
2022-07-26T18:24:38.989Z,98464.53
2022-07-26T18:27:27.392Z,98468.53
2022-07-26T18:30:12.951Z,98464.34
2022-07-26T18:32:59.244Z,98465.91
2022-07-26T18:35:44.050Z,98461.75
2022-07-26T18:38:29.061Z,98470.34
2022-07-26T18:41:14.119Z,98458.78
2022-07-26T18:43:59.212Z,98462.31
2022-07-26T18:46:44.298Z,98460.16
2022-07-26T18:49:31.642Z,98461.53
2022-07-26T18:52:16.818Z,98452.28
2022-07-26T18:55:14.159Z,98448.44
2022-07-26T18:58:03.226Z,98451.66
2022-07-26T19:00:51.758Z,98448.41
2022-07-26T19:03:37.252Z,98457.34
2022-07-26T19:06:22.430Z,98449.88
2022-07-26T19:09:07.729Z,98450.63
2022-07-26T19:11:54.302Z,98444.78
2022-07-26T19:14:39.144Z,98446.47
2022-07-26T19:17:24.118Z,98445.53
2022-07-26T19:20:10.063Z,98440.91
2022-07-26T19:22:55.400Z,98443.34
2022-07-26T19:25:40.929Z,98442.88
2022-07-26T19:28:25.886Z,98439.31
2022-07-26T19:31:10.857Z,98437.31
2022-07-26T19:33:55.777Z,98437.16
2022-07-26T19:36:41.249Z,98432.06
2022-07-26T19:39:26.307Z,98430.94
2022-07-26T19:42:11.078Z,98434.44
2022-07-26T19:44:56.545Z,98423.38
2022-07-26T19:47:41.115Z,98421.81
2022-07-26T19:50:26.208Z,98423.97
2022-07-26T19:53:11.205Z,98425.97
2022-07-26T19:55:56.165Z,98419.22
2022-07-26T19:58:41.306Z,98424.44
2022-07-26T20:01:27.722Z,98416.91
2022-07-26T20:04:12.680Z,98419.53
2022-07-26T20:06:57.647Z,98427.94
2022-07-26T20:09:42.595Z,98425.75
2022-07-26T20:12:28.132Z,98429.25
2022-07-26T20:15:13.880Z,98426.31
2022-07-26T20:17:58.994Z,98425.31
2022-07-26T20:20:43.982Z,98426.22
2022-07-26T20:23:28.985Z,98425.25
2022-07-26T20:26:14.071Z,98424.50
2022-07-26T20:28:59.911Z,98425.88
2022-07-26T20:31:45.137Z,98422.75
2022-07-26T20:34:29.977Z,98421.50
2022-07-26T20:37:14.833Z,98421.34
2022-07-26T20:39:59.790Z,98431.59
2022-07-26T20:42:47.478Z,98419.91
2022-07-26T20:45:32.937Z,98424.38
2022-07-26T20:48:17.734Z,98426.78
2022-07-26T20:51:07.624Z,98432.31
2022-07-26T20:53:59.063Z,98425.84
2022-07-26T20:56:44.260Z,98427.09
2022-07-26T20:59:29.314Z,98432.00
2022-07-26T21:02:14.321Z,98433.28
2022-07-26T21:04:59.862Z,98435.09
2022-07-26T21:07:55.960Z,98433.34
2022-07-26T21:10:45.458Z,98445.94
2022-07-26T21:13:33.484Z,98435.03
2022-07-26T21:16:18.374Z,98437.16
2022-07-26T21:19:04.952Z,98428.88
2022-07-26T21:21:49.803Z,98433.31
2022-07-26T21:24:35.427Z,98433.59
2022-07-26T21:27:20.290Z,98424.06
2022-07-26T21:30:06.357Z,98428.31
2022-07-26T21:32:51.436Z,98435.06
2022-07-26T21:35:36.741Z,98437.50
2022-07-26T21:38:21.724Z,98427.16
2022-07-26T21:41:06.869Z,98446.78
2022-07-26T21:43:51.750Z,98440.91
2022-07-26T21:46:36.884Z,98445.16
2022-07-26T21:49:21.898Z,98440.84
2022-07-26T21:52:06.788Z,98446.72
2022-07-26T21:54:51.681Z,98445.75
2022-07-26T21:57:36.935Z,98442.16
2022-07-26T22:00:21.800Z,98440.91
2022-07-26T22:03:07.134Z,98435.34
2022-07-26T22:05:52.133Z,98438.03
2022-07-26T22:08:39.333Z,98439.97
2022-07-26T22:11:24.701Z,98443.41
2022-07-26T22:14:09.795Z,98440.91
2022-07-26T22:16:54.761Z,98437.34
2022-07-26T22:19:39.691Z,98440.84
2022-07-26T22:22:24.882Z,98438.31
2022-07-26T22:25:09.892Z,98435.50
2022-07-26T22:27:55.806Z,98432.69
2022-07-26T22:30:41.312Z,98438.78
2022-07-26T22:33:26.875Z,98434.94
2022-07-26T22:36:12.199Z,98442.25
2022-07-26T22:38:57.046Z,98437.31
2022-07-26T22:42:12.590Z,98438.66
2022-07-26T22:44:47.307Z,98429.59
2022-07-26T22:47:32.221Z,98434.63
2022-07-26T22:50:17.185Z,98425.34
2022-07-26T22:53:02.980Z,98425.63
2022-07-26T22:55:48.143Z,98432.94
2022-07-26T22:58:33.140Z,98429.09
2022-07-26T23:01:19.198Z,98435.84
2022-07-26T23:04:06.221Z,98426.50
2022-07-26T23:06:52.745Z,98422.63
2022-07-26T23:09:39.840Z,98435.16
2022-07-26T23:12:24.960Z,98433.91
2022-07-26T23:15:10.914Z,98432.66
2022-07-26T23:17:55.773Z,98435.59
2022-07-26T23:20:42.158Z,98440.38
2022-07-26T23:23:29.547Z,98437.84
2022-07-26T23:26:15.016Z,98441.66
2022-07-26T23:29:00.141Z,98442.31
2022-07-26T23:31:45.160Z,98438.50
2022-07-26T23:34:30.091Z,98440.72
2022-07-26T23:37:15.118Z,98435.59
2022-07-26T23:40:00.186Z,98435.13
2022-07-26T23:42:45.147Z,98430.84
2022-07-26T23:45:30.382Z,98433.53
2022-07-26T23:48:15.491Z,98433.38
2022-07-26T23:51:00.504Z,98433.44
2022-07-26T23:53:45.989Z,98434.56
2022-07-26T23:56:30.892Z,98435.38
2022-07-26T23:59:16.196Z,98430.19
